Time;durP1;ratioP1;P1;durP2;ratioP2;P2;SDS_P1;SDS_P2;PMS_P1;PMS_P2;Temp;Humidity;BMP_temperature;BMP_pressure;BME280_temperature;BME280_humidity;BME280_pressure;Samples;Min_cycle;Max_cycle;Signal;HPM_P1;HPM_P2
2022/02/04 03:24:28;;;;;;;;;;;;;;;7.03;100.00;99533.06;5620825;23;19939;-84
2022/02/04 03:26:58;;;;;;;;;;;;;;;7.06;100.00;99528.53;4934867;29;19926;-94
2022/02/04 03:29:30;;;;;;;;;;;;;;;7.07;100.00;99529.41;4954461;28;19923;-85
2022/02/04 03:32:06;;;;;;;;;;;;;;;7.09;100.00;99533.72;4954971;28;19925;-83
2022/02/04 03:34:31;;;;;;;;;;;;;;;7.13;100.00;99528.34;4954016;29;19922;-87
2022/02/04 03:36:57;;;;;;;;;;;;;;;7.08;100.00;99532.00;4937589;29;19923;-91
2022/02/04 03:39:22;;;;;;;;;;;;;;;7.09;100.00;99533.72;4953415;29;19926;-86
2022/02/04 03:41:47;;;;;;;;;;;;;;;7.16;100.00;99523.81;4953448;29;19918;-84
2022/02/04 03:44:13;;;;;;;;;;;;;;;7.18;100.00;99526.41;4954613;28;20290;-84
2022/02/04 03:46:38;;;;;;;;;;;;;;;7.22;100.00;99522.78;4937345;29;19969;-85
2022/02/04 03:49:03;;;;;;;;;;;;;;;7.24;100.00;99513.03;4954632;28;19933;-84
2022/02/04 03:51:28;;;;;;;;;;;;;;;7.31;100.00;99522.47;4954091;29;20365;-87
2022/02/04 03:53:54;;;;;;;;;;;;;;;7.30;100.00;99530.44;4952995;29;19922;-84
2022/02/04 03:56:19;;;;;;;;;;;;;;;7.21;100.00;99532.47;4954537;28;19926;-85
2022/02/04 03:58:45;;;;;;;;;;;;;;;5.20;100.00;99532.09;4953669;28;19922;-84
2022/02/04 04:01:10;;;;;;;;;;;;;;;4.38;100.00;99533.09;4954377;28;19918;-84
2022/02/04 04:03:35;;;;;;;;;;;;;;;4.07;100.00;99544.25;4936978;29;19922;-85
2022/02/04 04:06:01;;;;;;;;;;;;;;;3.76;100.00;99536.09;4954097;28;20294;-85
2022/02/04 04:08:26;;;;;;;;;;;;;;;3.58;100.00;99534.69;4935735;29;20289;-93
2022/02/04 04:10:52;;;;;;;;;;;;;;;3.37;100.00;99542.03;4937033;28;20262;-85
2022/02/04 04:13:18;;;;;;;;;;;;;;;3.19;100.00;99539.72;4954086;28;19919;-87
2022/02/04 04:15:44;;;;;;;;;;;;;;;3.09;100.00;99539.91;4954220;28;19934;-85
2022/02/04 04:18:12;;;;;;;;;;;;;;;3.00;100.00;99549.63;4936922;29;19914;-85
2022/02/04 04:20:38;;;;;;;;;;;;;;;2.80;100.00;99560.41;4953801;28;19923;-85
2022/02/04 04:23:03;;;;;;;;;;;;;;;2.64;99.83;99559.78;4952489;28;19922;-87
2022/02/04 04:25:29;;;;;;;;;;;;;;;2.55;99.90;99558.13;4952511;28;19930;-85
2022/02/04 04:27:55;;;;;;;;;;;;;;;2.46;100.00;99560.91;4953927;28;20472;-92
2022/02/04 04:30:23;;;;;;;;;;;;;;;2.42;99.98;99567.03;4953976;29;20353;-92
2022/02/04 04:32:48;;;;;;;;;;;;;;;2.44;99.65;99560.03;4953599;29;19925;-84
2022/02/04 04:35:15;;;;;;;;;;;;;;;2.44;99.34;99560.03;4953992;28;20285;-84
2022/02/04 08:47:11;;;;;;;;;;;;;;;3.55;78.32;99517.25;4952150;28;19973;-87
2022/02/04 08:52:52;;;;;;;;;;;;;;;3.58;77.97;99521.59;4953623;28;20025;-88
2022/02/04 08:55:11;;;;;;;;;;;;;;;3.62;77.92;99525.88;4953084;28;19929;-86
2022/02/04 09:00:29;;;;;;;;;;;;;;;3.60;77.47;99522.41;4953548;28;19929;-88
2022/02/04 09:02:59;;;;;;;;;;;;;;;3.62;77.39;99516.28;4935890;28;19918;-87
2022/02/04 09:05:34;;;;;;;;;;;;;;;3.63;77.30;99514.50;4935802;29;19918;-85
2022/02/04 09:10:46;;;;;;;;;;;;;;;3.69;76.97;99516.16;4955994;28;19925;-87
2022/02/04 09:23:22;;;;;;;;;;;;;;;3.71;76.96;99512.59;4957209;29;19950;-85
2022/02/04 09:25:47;;;;;;;;;;;;;;;3.75;76.87;99511.66;4957052;28;20094;-87
2022/02/04 09:28:13;;;;;;;;;;;;;;;3.78;76.72;99515.97;4938174;29;20029;-86
2022/02/04 09:30:38;;;;;;;;;;;;;;;3.79;76.74;99505.44;4956980;28;19927;-85
2022/02/04 09:33:05;;;;;;;;;;;;;;;3.80;76.68;99504.56;4956790;29;20338;-86
2022/02/04 09:35:30;;;;;;;;;;;;;;;3.81;76.64;99508.91;4956776;29;20355;-86
2022/02/04 09:37:56;;;;;;;;;;;;;;;3.84;76.63;99504.50;4956806;29;19925;-85
2022/02/04 09:40:22;;;;;;;;;;;;;;;3.86;76.55;99497.47;4939630;29;19922;-86
2022/02/04 09:42:48;;;;;;;;;;;;;;;3.88;76.51;99493.94;4954640;28;19957;-89
2022/02/04 09:45:15;;;;;;;;;;;;;;;3.91;76.25;99495.59;4956351;29;19965;-86
2022/02/04 09:47:42;;;;;;;;;;;;;;;3.92;76.26;99495.56;4939485;29;20382;-86
2022/02/04 09:50:11;;;;;;;;;;;;;;;3.94;76.32;99496.44;4955711;28;19922;-88
2022/02/04 10:14:07;;;;;;;;;;;;;;;4.04;75.38;99486.63;4954819;28;19922;-87
2022/02/04 10:19:26;;;;;;;;;;;;;;;4.09;74.98;99474.25;4955761;28;19926;-85
2022/02/04 10:21:58;;;;;;;;;;;;;;;4.18;74.94;99474.06;4956021;28;20022;-87
2022/02/04 10:24:24;;;;;;;;;;;;;;;4.15;74.89;99474.13;4956044;29;19918;-89
2022/02/04 10:26:59;;;;;;;;;;;;;;;4.14;74.96;99474.16;4955196;28;19973;-87
2022/02/04 10:29:25;;;;;;;;;;;;;;;4.16;75.06;99472.38;4954480;29;19950;-86
2022/02/04 10:31:52;;;;;;;;;;;;;;;4.23;74.94;99467.84;4955813;28;19969;-88
2022/02/04 10:34:24;;;;;;;;;;;;;;;4.26;74.94;99467.78;4938693;29;19922;-85
2022/02/04 10:36:55;;;;;;;;;;;;;;;4.27;74.93;99469.50;4955864;29;19926;-88
2022/02/04 10:39:24;;;;;;;;;;;;;;;4.25;74.89;99466.94;4954962;29;19964;-87
2022/02/04 10:42:49;;;;;;;;;;;;;;;4.26;74.84;99473.03;4955587;29;20281;-87
2022/02/04 11:03:28;;;;;;;;;;;;;;;4.51;73.85;99436.59;4936076;29;20480;-85
2022/02/04 11:06:11;;;;;;;;;;;;;;;4.59;73.89;99426.78;4935441;29;20328;-85
2022/02/04 11:35:38;;;;;;;;;;;;;;;4.76;72.99;99405.38;4935505;29;19919;-86
2022/02/04 11:50:01;;;;;;;;;;;;;;;4.96;73.39;99394.34;4954417;29;19969;-85
2022/02/04 11:52:05;;;;;;;;;;;;;;;5.00;73.79;99397.78;4953346;28;19930;-86
2022/02/04 11:54:43;;;;;;;;;;;;;;;4.99;73.62;99391.66;4937147;29;19922;-85
2022/02/04 11:57:10;;;;;;;;;;;;;;;4.96;73.57;99380.38;4954315;28;19930;-87
2022/02/04 11:59:40;;;;;;;;;;;;;;;4.94;73.52;99380.41;4953247;28;20366;-85
2022/02/04 12:02:33;;;;;;;;;;;;;;;4.99;73.39;99370.63;4952775;28;19919;-86
2022/02/04 12:05:07;;;;;;;;;;;;;;;4.97;73.27;99363.72;4954284;28;19919;-85
2022/02/04 12:07:33;;;;;;;;;;;;;;;4.98;73.50;99352.31;4936958;29;20302;-85
2022/02/04 12:10:01;;;;;;;;;;;;;;;5.00;73.42;99353.16;4936812;29;19933;-85
2022/02/04 12:12:45;;;;;;;;;;;;;;;5.02;73.30;99346.06;4935377;29;20235;-86
2022/02/04 12:15:31;;;;;;;;;;;;;;;5.02;73.25;99336.44;4936676;28;19922;-88
2022/02/04 12:17:59;;;;;;;;;;;;;;;5.05;72.96;99349.47;4954221;28;19973;-86
2022/02/04 12:20:43;;;;;;;;;;;;;;;5.10;73.26;99344.09;4936637;29;19922;-86
2022/02/04 12:23:08;;;;;;;;;;;;;;;5.03;73.29;99326.81;4954043;29;19918;-87
2022/02/04 12:25:53;;;;;;;;;;;;;;;5.07;73.59;99318.81;4953856;29;20020;-87
2022/02/04 12:28:36;;;;;;;;;;;;;;;5.07;73.39;99310.91;4952500;28;20032;-87
2022/02/04 12:31:09;;;;;;;;;;;;;;;5.10;73.01;99309.97;4936469;29;20341;-85
2022/02/04 12:33:54;;;;;;;;;;;;;;;5.13;73.28;99285.38;4953681;29;19981;-88
2022/02/04 12:36:22;;;;;;;;;;;;;;;5.14;73.02;99298.47;4936594;29;19957;-86
2022/02/04 12:38:49;;;;;;;;;;;;;;;5.17;73.00;99295.75;4936434;29;19918;-88
2022/02/04 12:41:41;;;;;;;;;;;;;;;5.15;73.11;99287.03;4936270;28;19922;-86
2022/02/04 12:44:10;;;;;;;;;;;;;;;5.21;72.99;99286.88;4950400;28;19922;-86
2022/02/04 12:46:38;;;;;;;;;;;;;;;5.18;72.92;99291.34;4940514;29;19973;-86
2022/02/04 12:49:08;;;;;;;;;;;;;;;5.19;73.11;99286.06;4957740;28;19922;-87
2022/02/04 12:51:46;;;;;;;;;;;;;;;5.33;73.86;99284.78;4955796;29;19922;-87
2022/02/04 12:54:12;;;;;;;;;;;;;;;5.57;75.19;99289.31;4955388;29;19922;-86
2022/02/04 12:57:25;;;;;;;;;;;;;;;5.62;76.57;99278.69;4957630;28;19922;-86
2022/02/04 12:59:55;;;;;;;;;;;;;;;5.71;78.18;99265.25;4957189;28;19922;-87
2022/02/04 13:02:37;;;;;;;;;;;;;;;5.71;79.22;99277.53;4939258;29;20148;-89
2022/02/04 13:07:55;;;;;;;;;;;;;;;5.59;80.81;99265.63;4957698;28;19929;-88
2022/02/04 13:10:25;;;;;;;;;;;;;;;5.45;81.53;99251.13;4939807;28;19922;-89
2022/02/04 13:13:00;;;;;;;;;;;;;;;5.18;82.40;99255.44;4938511;29;20551;-86
2022/02/04 13:15:29;;;;;;;;;;;;;;;4.88;83.88;99250.19;4956864;28;19918;-86
2022/02/04 13:17:55;;;;;;;;;;;;;;;4.85;85.45;99250.25;4939750;29;20009;-86
2022/02/04 13:20:22;;;;;;;;;;;;;;;4.84;87.58;99251.16;4956912;28;20511;-86
2022/02/04 13:22:58;;;;;;;;;;;;;;;4.88;90.18;99237.06;4939867;29;19918;-86
2022/02/04 13:25:25;;;;;;;;;;;;;;;5.15;92.99;99228.41;4939009;28;19918;-85
2022/02/04 13:28:11;;;;;;;;;;;;;;;5.42;96.46;99232.81;4954569;28;20362;-87
2022/02/04 13:30:38;;;;;;;;;;;;;;;5.72;99.82;99226.69;4956970;29;19930;-87
2022/02/04 13:33:14;;;;;;;;;;;;;;;5.93;100.00;99218.06;4956074;29;19973;-85
2022/02/04 13:35:41;;;;;;;;;;;;;;;6.05;100.00;99215.97;4956671;28;20398;-86
2022/02/04 13:38:22;;;;;;;;;;;;;;;6.19;100.00;99219.03;4956851;28;20065;-87
2022/02/04 13:41:43;;;;;;;;;;;;;;;6.26;100.00;99210.00;4939231;29;19922;-87
2022/02/04 13:43:45;;;;;;;;;;;;;;;6.35;100.00;99196.53;4936899;28;19921;-87
2022/02/04 13:46:27;;;;;;;;;;;;;;;6.44;100.00;99194.50;4939331;28;19962;-86
2022/02/04 13:54:09;;;;;;;;;;;;;;;6.58;100.00;99200.13;5002539;23;20397;-87
2022/02/04 13:56:47;;;;;;;;;;;;;;;6.62;100.00;99200.88;4936875;29;19919;-87
2022/02/04 13:59:26;;;;;;;;;;;;;;;6.70;100.00;99199.69;4918658;29;19918;-86
2022/02/04 14:02:05;;;;;;;;;;;;;;;6.74;100.00;99200.44;4937133;29;19926;-88
2022/02/04 14:04:30;;;;;;;;;;;;;;;6.81;100.00;99203.69;4919792;29;19929;-87
2022/02/04 14:07:06;;;;;;;;;;;;;;;6.77;100.00;99188.94;4934150;29;19923;-88
2022/02/04 14:09:34;;;;;;;;;;;;;;;6.87;100.00;99206.94;4935541;29;20026;-86
2022/02/04 14:12:13;;;;;;;;;;;;;;;6.86;100.00;99193.84;4937021;29;19922;-87
2022/02/04 14:14:40;;;;;;;;;;;;;;;6.92;100.00;99198.88;4918835;29;19922;-90
2022/02/04 14:17:06;;;;;;;;;;;;;;;6.98;100.00;99203.06;4936860;29;19919;-86
2022/02/04 14:19:32;;;;;;;;;;;;;;;7.01;100.00;99203.81;4919716;29;19938;-87
2022/02/04 14:21:57;;;;;;;;;;;;;;;7.00;100.00;99191.53;4919218;29;19926;-87
2022/02/04 14:24:27;;;;;;;;;;;;;;;7.06;100.00;99198.38;4936821;29;19923;-86
2022/02/04 14:26:53;;;;;;;;;;;;;;;6.26;100.00;99204.75;4936818;29;20107;-86
2022/02/04 14:29:25;;;;;;;;;;;;;;;4.60;100.00;99208.09;4918202;29;19926;-86
2022/02/04 14:32:06;;;;;;;;;;;;;;;4.01;98.24;99206.16;4918999;29;19923;-86
2022/02/04 14:51:45;;;;;;;;;;;;;;;2.47;90.44;99209.53;4936417;29;20385;-86
2022/02/04 14:54:31;;;;;;;;;;;;;;;2.33;89.20;99205.44;4918956;29;19978;-87
2022/02/04 15:02:38;;;;;;;;;;;;;;;1.87;87.53;99208.88;4936047;29;20009;-87
2022/02/04 15:05:08;;;;;;;;;;;;;;;1.69;87.10;99202.19;4936121;29;19969;-89
2022/02/04 15:07:36;;;;;;;;;;;;;;;1.81;86.35;99203.75;4934752;29;20013;-87
2022/02/04 15:10:02;;;;;;;;;;;;;;;1.61;85.46;99206.66;4918158;29;19919;-87
2022/02/04 15:12:30;;;;;;;;;;;;;;;2.09;86.96;99203.25;4931530;29;19982;-88
2022/02/04 15:14:55;;;;;;;;;;;;;;;2.40;90.06;99189.66;4931797;29;19957;-87
2022/02/04 15:17:26;;;;;;;;;;;;;;;2.79;93.79;99194.97;4933809;29;19927;-88
2022/02/04 15:19:59;;;;;;;;;;;;;;;2.81;95.37;99188.81;4915479;29;19923;-87
2022/02/04 15:22:26;;;;;;;;;;;;;;;2.95;96.81;99192.88;4933464;29;20374;-87
2022/02/04 15:24:56;;;;;;;;;;;;;;;3.06;97.69;99196.13;4933425;29;20013;-88
2022/02/04 15:27:24;;;;;;;;;;;;;;;3.04;98.11;99190.94;4933474;29;20334;-86
2022/02/04 15:29:52;;;;;;;;;;;;;;;3.09;98.74;99183.88;4918397;29;19968;-87
2022/02/04 15:32:20;;;;;;;;;;;;;;;3.14;99.16;99182.88;4935496;29;19954;-88
2022/02/04 15:34:45;;;;;;;;;;;;;;;3.16;99.61;99175.84;4918076;29;19923;-88
2022/02/04 15:37:10;;;;;;;;;;;;;;;3.22;99.79;99176.59;4918561;29;19919;-87
2022/02/04 15:39:36;;;;;;;;;;;;;;;3.31;99.95;99179.91;4910085;29;19946;-87
2022/02/04 15:42:07;;;;;;;;;;;;;;;3.33;99.97;99180.72;4934170;29;20010;-86
2022/02/04 15:59:57;;;;;;;;;;;;;;;3.41;96.17;99153.44;4931623;29;19934;-87
2022/02/04 16:02:44;;;;;;;;;;;;;;;3.42;95.12;99157.78;4935032;29;19919;-87
2022/02/04 16:05:11;;;;;;;;;;;;;;;3.45;93.68;99149.00;4917989;29;19922;-88
2022/02/04 16:07:40;;;;;;;;;;;;;;;3.47;92.56;99152.44;4930127;29;20062;-87
2022/02/04 16:12:58;;;;;;;;;;;;;;;3.43;90.75;99143.81;4933263;29;19927;-88
2022/02/04 16:15:46;;;;;;;;;;;;;;;3.39;89.84;99144.75;4935128;29;20358;-86
2022/02/04 16:18:18;;;;;;;;;;;;;;;3.37;89.18;99130.84;4917564;29;19919;-86
2022/02/04 16:23:28;;;;;;;;;;;;;;;3.42;88.42;99131.59;4934727;29;19922;-87
2022/02/04 16:28:41;;;;;;;;;;;;;;;3.42;87.51;99143.84;4933577;29;20037;-87
2022/02/04 16:31:11;;;;;;;;;;;;;;;3.41;87.16;99153.44;4934934;29;19922;-88
2022/02/04 16:33:36;;;;;;;;;;;;;;;3.37;87.06;99154.41;4916605;29;19922;-88
2022/02/04 16:36:11;;;;;;;;;;;;;;;3.43;86.99;99151.66;4917565;29;19922;-88
2022/02/04 16:38:39;;;;;;;;;;;;;;;3.39;86.99;99139.53;4916681;29;20009;-87
2022/02/04 16:41:12;;;;;;;;;;;;;;;3.41;86.62;99142.94;4934581;29;20396;-86
2022/02/04 16:43:40;;;;;;;;;;;;;;;3.43;86.40;99135.94;4916135;29;19923;-86
2022/02/04 16:46:06;;;;;;;;;;;;;;;3.49;86.29;99141.91;4934415;29;19997;-88
2022/02/04 16:48:35;;;;;;;;;;;;;;;3.45;86.00;99139.38;4916270;29;19919;-88
2022/02/04 16:51:01;;;;;;;;;;;;;;;3.44;85.88;99137.66;4914547;29;19926;-85
2022/02/04 16:53:27;;;;;;;;;;;;;;;3.47;85.61;99133.25;4914684;29;19927;-87
2022/02/04 16:55:53;;;;;;;;;;;;;;;3.48;85.24;99146.31;4929289;29;19923;-86
2022/02/04 16:58:21;;;;;;;;;;;;;;;3.47;85.22;99147.19;4911700;29;20256;-86
2022/02/04 17:00:46;;;;;;;;;;;;;;;3.51;85.04;99147.97;4917141;29;19946;-88
2022/02/04 17:03:11;;;;;;;;;;;;;;;3.52;84.71;99149.72;4933918;29;20374;-87
2022/02/04 17:05:48;;;;;;;;;;;;;;;3.58;84.66;99154.81;4917140;29;19926;-85
2022/02/04 17:08:32;;;;;;;;;;;;;;;3.50;84.91;99147.13;4934012;29;20441;-86
2022/02/04 17:11:02;;;;;;;;;;;;;;;3.47;84.76;99152.44;4932641;29;19958;-87
2022/02/04 17:13:29;;;;;;;;;;;;;;;3.47;84.42;99159.44;4933031;29;20013;-86
2022/02/04 17:15:54;;;;;;;;;;;;;;;3.53;84.42;99161.91;4917259;29;19923;-85
2022/02/04 17:18:28;;;;;;;;;;;;;;;3.50;84.31;99154.13;4932866;29;19942;-87
2022/02/04 17:20:56;;;;;;;;;;;;;;;3.56;84.07;99159.22;4933845;29;20415;-87
2022/02/04 17:23:43;;;;;;;;;;;;;;;3.56;83.90;99162.69;4933613;29;19918;-88
2022/02/04 17:26:11;;;;;;;;;;;;;;;3.53;83.72;99161.91;4921311;29;20429;-86
2022/02/04 17:28:37;;;;;;;;;;;;;;;3.53;83.54;99170.63;4916185;29;20338;-86
2022/02/04 17:31:02;;;;;;;;;;;;;;;3.52;83.55;99171.50;4933111;29;19930;-88
2022/02/04 17:33:28;;;;;;;;;;;;;;;3.47;83.39;99164.69;4937419;29;20279;-86
2022/02/04 17:35:56;;;;;;;;;;;;;;;3.49;83.46;99168.13;4919384;29;19986;-86
2022/02/04 17:38:21;;;;;;;;;;;;;;;3.56;83.69;99173.19;4937666;29;19942;-86
2022/02/04 17:40:46;;;;;;;;;;;;;;;3.54;83.60;99169.75;4918690;29;19923;-87
2022/02/04 17:43:12;;;;;;;;;;;;;;;3.54;83.36;99166.25;4918993;29;19923;-85
2022/02/04 17:45:37;;;;;;;;;;;;;;;3.56;83.19;99169.72;4936891;29;19919;-87
2022/02/04 17:48:21;;;;;;;;;;;;;;;3.57;83.21;99161.78;4920065;29;19923;-88
2022/02/04 17:50:55;;;;;;;;;;;;;;;3.57;82.93;99159.16;4919990;29;19930;-86
2022/02/04 17:53:25;;;;;;;;;;;;;;;3.59;82.75;99161.75;4919856;29;19923;-86
2022/02/04 17:56:03;;;;;;;;;;;;;;;3.57;82.42;99168.78;4920229;29;19922;-85
2022/02/04 17:58:43;;;;;;;;;;;;;;;3.60;82.42;99163.47;4935089;29;19981;-85
2022/02/04 18:01:38;;;;;;;;;;;;;;;3.68;82.26;99165.91;4936781;29;20294;-84
2022/02/04 18:09:20;;;;;;;;;;;;;;;3.69;81.43;99163.25;4934153;29;19934;-88
2022/02/04 18:11:51;;;;;;;;;;;;;;;3.67;81.11;99170.31;4935199;29;19947;-86
2022/02/04 18:14:16;;;;;;;;;;;;;;;3.71;81.02;99166.69;4931339;29;20611;-87
2022/02/04 18:16:42;;;;;;;;;;;;;;;3.73;80.88;99170.13;4919250;29;20006;-88
2022/02/04 18:19:07;;;;;;;;;;;;;;;3.73;80.66;99179.75;4919674;29;19923;-85
2022/02/04 18:21:33;;;;;;;;;;;;;;;3.72;80.63;99181.53;4936958;29;19919;-87
2022/02/04 18:24:03;;;;;;;;;;;;;;;3.69;80.51;99181.59;4919682;29;19922;-86
2022/02/04 18:26:28;;;;;;;;;;;;;;;3.73;80.43;99178.00;4919329;29;20408;-86
2022/02/04 18:28:53;;;;;;;;;;;;;;;3.77;80.48;99191.91;4935498;29;19919;-85
2022/02/04 18:31:19;;;;;;;;;;;;;;;3.70;80.29;99206.91;4936766;29;19919;-85
2022/02/04 18:34:04;;;;;;;;;;;;;;;3.69;80.13;99231.38;4919356;29;19926;-87
2022/02/04 18:36:30;;;;;;;;;;;;;;;3.69;79.81;99231.38;4920108;29;20001;-86
2022/02/04 18:39:11;;;;;;;;;;;;;;;3.69;79.95;99243.63;4919414;29;20356;-85
2022/02/04 18:44:08;;;;;;;;;;;;;;;3.71;79.62;99287.22;4934924;29;20374;-87
2022/02/04 18:52:20;;;;;;;;;;;;;;;3.75;80.91;99309.88;4925358;29;19922;-86
2022/02/04 18:55:16;;;;;;;;;;;;;;;3.75;80.86;99319.47;4934510;29;19923;-85
2022/02/04 18:57:30;;;;;;;;;;;;;;;3.82;80.97;99332.41;4934791;29;19981;-86
2022/02/04 19:03:10;;;;;;;;;;;;;;;3.78;81.02;99329.88;4895543;29;19969;-85
2022/02/04 19:05:42;;;;;;;;;;;;;;;3.80;80.85;99333.34;4918903;29;19922;-85
2022/02/04 19:08:16;;;;;;;;;;;;;;;3.82;80.71;99336.78;4932332;29;19919;-84
2022/02/04 19:10:41;;;;;;;;;;;;;;;3.81;80.86;99346.41;4932790;29;19922;-84
2022/02/04 19:13:16;;;;;;;;;;;;;;;3.79;80.37;99347.34;4933960;29;19923;-86
2022/02/04 19:15:58;;;;;;;;;;;;;;;3.74;79.63;99365.78;4918676;29;19926;-83
2022/02/04 19:18:34;;;;;;;;;;;;;;;3.76;79.29;99369.22;4935935;29;19973;-84
2022/02/04 19:21:10;;;;;;;;;;;;;;;3.74;79.24;99384.13;4918667;29;19962;-84
2022/02/04 19:23:37;;;;;;;;;;;;;;;3.76;79.17;99387.56;4918460;29;19919;-86
2022/02/04 19:26:12;;;;;;;;;;;;;;;3.81;79.01;99393.59;4917991;29;19926;-85
2022/02/04 19:28:37;;;;;;;;;;;;;;;3.81;79.05;99406.69;4930818;29;19919;-87
2022/02/04 19:31:03;;;;;;;;;;;;;;;3.82;78.91;99405.78;4916491;29;20062;-86
2022/02/04 19:33:28;;;;;;;;;;;;;;;3.81;78.42;99416.31;4935491;29;20359;-86
2022/02/04 19:35:58;;;;;;;;;;;;;;;3.79;78.40;99421.56;4935470;29;19982;-85
2022/02/04 19:38:25;;;;;;;;;;;;;;;3.80;78.05;99431.19;4917866;29;19962;-87
2022/02/04 19:40:53;;;;;;;;;;;;;;;3.84;78.10;99447.69;4934686;29;20010;-86
2022/02/04 19:43:22;;;;;;;;;;;;;;;3.84;78.29;99449.47;4934418;29;19914;-87
2022/02/04 19:45:53;;;;;;;;;;;;;;;3.87;78.55;99470.38;4918132;29;19919;-84
2022/02/04 20:07:10;;;;;;;;;;;;;;;3.92;76.41;99536.66;4934201;29;19982;-86
2022/02/04 20:25:59;;;;;;;;;;;;;;;3.95;74.46;99589.91;4931734;29;19966;-87
2022/02/04 20:28:25;;;;;;;;;;;;;;;3.97;74.25;99606.47;4932530;29;19958;-84
2022/02/04 20:30:50;;;;;;;;;;;;;;;3.98;74.59;99602.94;4933275;29;19919;-84
2022/02/04 20:33:17;;;;;;;;;;;;;;;3.99;74.30;99611.69;4917218;29;19919;-85
2022/02/04 20:35:43;;;;;;;;;;;;;;;4.01;74.18;99620.38;4930518;29;20006;-86
2022/02/04 20:38:14;;;;;;;;;;;;;;;4.02;74.04;99627.38;4917074;29;20021;-87
2022/02/04 20:40:42;;;;;;;;;;;;;;;4.04;73.99;99633.44;4915540;29;20375;-85
2022/02/04 20:43:07;;;;;;;;;;;;;;;4.05;73.80;99652.66;4931855;29;20025;-83
2022/02/04 20:45:33;;;;;;;;;;;;;;;4.06;73.70;99643.91;4930348;29;20013;-84
2022/02/04 20:47:59;;;;;;;;;;;;;;;4.03;73.17;99655.31;4933690;29;20005;-84
2022/02/04 20:50:25;;;;;;;;;;;;;;;4.08;73.24;99655.22;4917503;29;19919;-85
2022/02/04 20:52:51;;;;;;;;;;;;;;;4.09;73.13;99670.06;4915803;29;19926;-85
2022/02/04 20:55:17;;;;;;;;;;;;;;;4.08;73.20;99679.69;4932430;29;19930;-84
2022/02/04 20:57:44;;;;;;;;;;;;;;;4.07;72.68;99683.22;4932972;29;19918;-86
2022/02/04 21:00:11;;;;;;;;;;;;;;;4.11;72.58;99697.13;4917133;29;19927;-84
2022/02/04 21:02:37;;;;;;;;;;;;;;;4.06;72.37;99702.44;4928882;29;19927;-87
2022/02/04 21:05:10;;;;;;;;;;;;;;;4.08;72.28;99711.16;4933566;29;19927;-87
2022/02/04 21:07:55;;;;;;;;;;;;;;;4.09;72.07;99720.75;4918536;29;19923;-85
2022/02/04 21:15:48;;;;;;;;;;;;;;;4.17;72.28;99731.97;4938525;29;20005;-85
2022/02/04 21:18:15;;;;;;;;;;;;;;;4.13;71.93;99730.31;4932968;29;20382;-86
2022/02/04 21:20:41;;;;;;;;;;;;;;;4.16;71.66;99738.13;4932687;29;19926;-85
2022/02/04 21:23:12;;;;;;;;;;;;;;;4.15;71.60;99744.25;4919118;29;19974;-87
2022/02/04 21:25:40;;;;;;;;;;;;;;;4.22;71.67;99745.00;4920696;29;19973;-89
2022/02/04 21:28:09;;;;;;;;;;;;;;;4.22;71.60;99754.66;4935588;29;19934;-87
2022/02/04 21:30:35;;;;;;;;;;;;;;;4.19;71.37;99756.41;4935349;29;19926;-85
2022/02/04 21:33:02;;;;;;;;;;;;;;;4.23;71.72;99756.34;4937555;29;20378;-88
2022/02/04 21:38:13;;;;;;;;;;;;;;;4.22;71.05;99763.38;4936787;29;19950;-86
2022/02/04 21:40:38;;;;;;;;;;;;;;;4.23;70.91;99772.97;4937516;29;20013;-86
2022/02/04 21:43:07;;;;;;;;;;;;;;;4.24;70.74;99774.69;4915732;29;20084;-86
2022/02/04 21:45:36;;;;;;;;;;;;;;;4.23;70.42;99778.22;4936011;29;20009;-88
2022/02/04 21:48:06;;;;;;;;;;;;;;;4.25;70.31;99776.44;4938057;29;19923;-84
2022/02/04 21:50:35;;;;;;;;;;;;;;;4.26;70.22;99783.41;4919644;29;19941;-87
2022/02/04 21:53:00;;;;;;;;;;;;;;;4.26;70.14;99782.53;4918938;29;20302;-86
2022/02/04 21:55:25;;;;;;;;;;;;;;;4.28;70.00;99791.25;4936354;29;19923;-85
2022/02/04 21:57:51;;;;;;;;;;;;;;;4.27;69.75;99790.38;4918893;29;19925;-85
2022/02/04 22:00:17;;;;;;;;;;;;;;;4.30;69.86;99799.97;4936783;29;19933;-85
2022/02/04 22:02:42;;;;;;;;;;;;;;;4.31;69.73;99807.81;4937013;29;20487;-86
2022/02/04 22:05:09;;;;;;;;;;;;;;;4.29;69.50;99806.09;4919629;29;19926;-86
2022/02/04 22:07:40;;;;;;;;;;;;;;;4.30;69.54;99813.94;4919820;29;19919;-85
2022/02/04 22:10:25;;;;;;;;;;;;;;;4.34;69.49;99812.13;4932855;29;19923;-87
2022/02/04 22:25:34;;;;;;;;;;;;;;;;;;;;;
2022/02/04 22:28:25;;;;;;;;;;;;;;;4.47;70.71;99834.66;4812023;29;19922;-90
2022/02/04 22:31:00;;;;;;;;;;;;;;;4.49;70.71;99832.00;4822121;29;19925;-89
2022/02/04 22:33:55;;;;;;;;;;;;;;;4.51;70.65;99840.69;4821804;29;19997;-91
2022/02/04 22:37:08;;;;;;;;;;;;;;;4.53;70.81;99845.03;4839679;29;19924;-88
2022/02/04 23:02:19;;;;;;;;;;;;;;;4.66;70.00;99878.94;4841474;29;19932;-88
2022/02/04 23:04:47;;;;;;;;;;;;;;;4.65;70.06;99885.94;4832857;29;19920;-89
2022/02/04 23:07:25;;;;;;;;;;;;;;;;;;;;;
2022/02/04 23:10:03;;;;;;;;;;;;;;;4.71;69.97;99885.00;4850260;29;19934;-89
2022/02/04 23:12:41;;;;;;;;;;;;;;;4.69;69.94;99886.75;4842087;29;19965;-89
2022/02/04 23:15:19;;;;;;;;;;;;;;;4.71;69.97;99885.00;4934241;29;19941;-88
2022/02/04 23:18:15;;;;;;;;;;;;;;;4.72;69.88;99890.22;4935798;29;19922;-90
2022/02/04 23:20:44;;;;;;;;;;;;;;;4.73;69.88;99888.44;4876210;29;19935;-89
2022/02/04 23:23:12;;;;;;;;;;;;;;;4.73;69.70;99888.44;4917985;29;19929;-88
2022/02/04 23:46:05;;;;;;;;;;;;;;;;;;;;;
2022/02/04 23:51:00;;;;;;;;;;;;;;;4.83;69.57;99936.41;4935072;29;19998;-88
2022/02/04 23:53:28;;;;;;;;;;;;;;;4.85;69.67;99937.25;4934753;29;19923;-88
2022/02/04 23:55:56;;;;;;;;;;;;;;;4.84;69.77;99938.16;4935304;29;20465;-88
2022/02/04 23:58:23;;;;;;;;;;;;;;;4.82;69.74;99940.81;4916426;29;20367;-87
